createdAt,value
2022-08-28T00:00:26.420Z,5.60
2022-08-28T00:01:44.039Z,7.10
2022-08-28T00:02:52.054Z,5.80
2022-08-28T00:04:01.517Z,5.60
2022-08-28T00:05:10.642Z,6.90
2022-08-28T00:06:20.712Z,7.10
2022-08-28T00:07:28.640Z,5.50
2022-08-28T00:08:36.480Z,7.20
2022-08-28T00:09:43.775Z,5.90
2022-08-28T00:10:51.761Z,7.40
2022-08-28T00:12:00.257Z,5.90
2022-08-28T00:13:09.581Z,6.20
2022-08-28T00:14:21.039Z,5.10
2022-08-28T00:15:32.924Z,5.90
2022-08-28T00:16:40.061Z,6.80
2022-08-28T00:17:47.951Z,6.50
2022-08-28T00:18:56.897Z,5.90
2022-08-28T00:20:06.231Z,5.20
2022-08-28T00:21:14.303Z,7.50
2022-08-28T00:22:21.583Z,5.50
2022-08-28T00:23:36.958Z,6.10
2022-08-28T00:24:50.504Z,6.00
2022-08-28T00:26:02.681Z,5.80
2022-08-28T00:27:28.604Z,5.30
2022-08-28T00:28:35.987Z,5.80
2022-08-28T00:29:42.788Z,5.60
2022-08-28T00:30:51.897Z,5.90
2022-08-28T00:31:59.200Z,4.80
2022-08-28T00:33:09.429Z,4.70
2022-08-28T00:34:17.847Z,5.40
2022-08-28T00:35:27.336Z,6.60
2022-08-28T00:36:35.121Z,5.60
2022-08-28T00:37:41.827Z,5.30
2022-08-28T00:38:48.915Z,5.40
2022-08-28T00:39:55.991Z,6.00
2022-08-28T00:41:05.033Z,6.50
2022-08-28T00:42:12.158Z,9.30
2022-08-28T00:43:37.625Z,7.00
2022-08-28T00:44:46.519Z,6.60
2022-08-28T00:45:53.570Z,4.60
2022-08-28T00:47:00.915Z,4.70
2022-08-28T00:48:08.361Z,7.10
2022-08-28T00:49:16.515Z,6.10
2022-08-28T00:50:24.957Z,5.40
2022-08-28T00:51:50.185Z,5.80
2022-08-28T00:53:01.476Z,7.10
2022-08-28T00:54:08.743Z,5.00
2022-08-28T00:55:21.261Z,6.50
2022-08-28T00:56:28.554Z,5.20
2022-08-28T00:57:56.874Z,7.50
2022-08-28T00:59:07.532Z,8.00
2022-08-28T01:00:18.697Z,6.10
2022-08-28T01:01:26.735Z,7.70
2022-08-28T01:02:34.313Z,6.00
2022-08-28T01:03:41.389Z,5.20
2022-08-28T01:04:49.762Z,4.90
2022-08-28T01:05:57.421Z,5.80
2022-08-28T01:07:07.520Z,6.20
2022-08-28T01:08:15.293Z,6.70
2022-08-28T01:09:27.134Z,6.70
2022-08-28T01:10:34.668Z,5.10
2022-08-28T01:11:42.990Z,6.50
2022-08-28T01:12:51.695Z,5.50
2022-08-28T01:14:01.916Z,6.10
2022-08-28T01:15:13.954Z,5.80
2022-08-28T01:16:21.305Z,4.80
2022-08-28T01:17:30.074Z,8.00
2022-08-28T01:18:37.384Z,4.30
2022-08-28T01:19:53.875Z,5.50
2022-08-28T01:21:26.479Z,4.40
2022-08-28T01:22:39.895Z,4.70
2022-08-28T01:23:49.401Z,6.30
2022-08-28T01:24:59.777Z,5.30
2022-08-28T01:26:11.706Z,6.00
2022-08-28T01:27:19.647Z,7.00
2022-08-28T01:28:29.479Z,6.20
2022-08-28T01:29:38.303Z,6.50
2022-08-28T01:30:46.740Z,5.50
2022-08-28T01:31:54.008Z,6.30
2022-08-28T01:33:01.127Z,7.50
2022-08-28T01:34:08.795Z,8.80
2022-08-28T01:35:19.940Z,5.50
2022-08-28T01:36:28.349Z,8.00
2022-08-28T01:37:36.394Z,7.50
2022-08-28T01:38:44.069Z,4.80
2022-08-28T01:39:51.916Z,6.30
2022-08-28T01:41:01.251Z,6.90
2022-08-28T01:42:10.669Z,5.60
2022-08-28T01:43:23.768Z,6.30
2022-08-28T01:44:31.421Z,6.10
2022-08-28T01:45:39.298Z,5.50
2022-08-28T01:46:47.584Z,6.80
2022-08-28T01:47:56.278Z,5.50
2022-08-28T01:49:04.618Z,5.20
2022-08-28T01:50:15.173Z,7.50
2022-08-28T01:51:24.714Z,5.30
2022-08-28T01:52:33.196Z,5.90
2022-08-28T01:53:40.994Z,8.90
2022-08-28T01:54:48.604Z,10.30
2022-08-28T01:55:57.746Z,8.50
2022-08-28T01:57:06.591Z,6.90
2022-08-28T01:58:15.354Z,5.70
2022-08-28T01:59:27.350Z,6.50
2022-08-28T02:00:36.935Z,4.30
2022-08-28T02:01:45.361Z,6.30
2022-08-28T02:02:53.745Z,5.90
2022-08-28T02:04:06.478Z,6.30
2022-08-28T02:05:15.548Z,6.30
2022-08-28T02:06:23.706Z,5.20
2022-08-28T02:07:31.730Z,6.20
2022-08-28T02:08:38.902Z,6.60
2022-08-28T02:09:46.006Z,5.90
2022-08-28T02:10:53.962Z,5.30
2022-08-28T02:12:01.110Z,5.60
2022-08-28T02:13:09.461Z,7.70
2022-08-28T02:14:18.448Z,5.10
2022-08-28T02:15:26.957Z,5.30
2022-08-28T02:16:34.367Z,6.60
2022-08-28T02:17:41.639Z,5.50
2022-08-28T02:18:50.452Z,6.40
2022-08-28T02:19:57.881Z,7.10
2022-08-28T02:21:06.415Z,8.90
2022-08-28T02:22:15.287Z,8.70
2022-08-28T02:23:23.520Z,7.80
2022-08-28T02:24:31.462Z,9.70
2022-08-28T02:25:39.041Z,7.30
2022-08-28T02:26:47.382Z,8.90
2022-08-28T02:27:56.496Z,6.20
2022-08-28T02:29:05.294Z,6.50
2022-08-28T02:30:14.084Z,5.60
2022-08-28T02:31:22.645Z,9.00
2022-08-28T02:32:31.675Z,8.60
2022-08-28T02:33:42.914Z,6.40
2022-08-28T02:34:51.219Z,12.20
2022-08-28T02:36:00.574Z,8.70
2022-08-28T02:37:10.339Z,9.30
2022-08-28T02:38:19.359Z,6.70
2022-08-28T02:39:27.682Z,6.80
2022-08-28T02:40:35.229Z,11.20
2022-08-28T02:41:42.226Z,10.30
2022-08-28T02:42:50.183Z,7.70
2022-08-28T02:43:58.734Z,12.90
2022-08-28T02:45:08.166Z,16.90
2022-08-28T02:46:16.704Z,8.10
2022-08-28T02:47:24.667Z,6.20
2022-08-28T02:48:36.271Z,8.40
2022-08-28T02:49:44.200Z,5.60
2022-08-28T02:50:51.844Z,5.90
2022-08-28T02:52:01.292Z,8.90
2022-08-28T02:53:09.991Z,9.60
2022-08-28T02:54:18.559Z,9.70
2022-08-28T02:55:28.628Z,7.00
2022-08-28T02:56:38.990Z,6.20
2022-08-28T02:57:46.811Z,6.40
2022-08-28T02:58:55.343Z,7.00
2022-08-28T03:00:08.651Z,7.70
2022-08-28T03:01:17.499Z,6.60
2022-08-28T03:02:26.655Z,7.40
2022-08-28T03:03:34.319Z,7.90
2022-08-28T03:04:42.815Z,7.10
2022-08-28T03:05:50.130Z,6.00
2022-08-28T03:06:57.948Z,8.50
2022-08-28T03:08:06.695Z,7.20
2022-08-28T03:09:15.554Z,7.20
2022-08-28T03:10:25.622Z,11.50
2022-08-28T03:11:33.887Z,7.00
2022-08-28T03:12:41.300Z,7.40
2022-08-28T03:13:49.255Z,8.40
2022-08-28T03:14:57.143Z,6.30
2022-08-28T03:16:06.598Z,5.60
2022-08-28T03:17:15.772Z,8.60
2022-08-28T03:18:24.353Z,7.00
2022-08-28T03:19:34.161Z,8.30
2022-08-28T03:20:41.924Z,6.40
2022-08-28T03:21:49.149Z,8.50
2022-08-28T03:23:19.166Z,7.00
2022-08-28T03:24:28.142Z,6.00
2022-08-28T03:25:35.990Z,8.70
2022-08-28T03:26:43.515Z,9.30
2022-08-28T03:27:51.876Z,10.10
2022-08-28T03:29:00.632Z,8.90
2022-08-28T03:30:09.093Z,9.50
2022-08-28T03:31:19.191Z,5.90
2022-08-28T03:32:29.319Z,9.40
2022-08-28T03:33:37.228Z,7.20
2022-08-28T03:34:44.391Z,7.70
2022-08-28T03:35:51.580Z,7.90
2022-08-28T03:36:59.570Z,8.60
2022-08-28T03:38:07.580Z,8.60
2022-08-28T03:39:17.214Z,9.50
2022-08-28T03:40:25.097Z,8.10
2022-08-28T03:41:32.525Z,9.70
2022-08-28T03:42:39.764Z,8.60
2022-08-28T03:43:46.850Z,7.80
2022-08-28T03:44:55.970Z,7.30
2022-08-28T03:46:06.159Z,9.40
2022-08-28T03:47:14.202Z,10.70
2022-08-28T03:48:22.895Z,12.50
2022-08-28T03:49:30.675Z,15.40
2022-08-28T03:50:38.087Z,16.40
2022-08-28T03:51:45.345Z,10.20
2022-08-28T03:52:52.608Z,11.10
2022-08-28T03:54:00.887Z,18.60
2022-08-28T03:55:10.592Z,8.50
2022-08-28T03:56:23.288Z,8.80
2022-08-28T03:57:31.649Z,8.20
2022-08-28T03:58:40.351Z,8.30
2022-08-28T03:59:51.126Z,8.20
2022-08-28T04:00:59.480Z,7.80
2022-08-28T04:02:07.583Z,8.90
2022-08-28T04:03:16.425Z,8.20
2022-08-28T04:04:24.810Z,8.40
2022-08-28T04:05:32.600Z,10.40
2022-08-28T04:06:40.156Z,7.70
2022-08-28T04:07:47.226Z,8.10
2022-08-28T04:08:55.173Z,10.70
2022-08-28T04:10:09.520Z,9.90
2022-08-28T04:11:18.629Z,10.00
2022-08-28T04:12:27.355Z,7.30
2022-08-28T04:13:36.744Z,7.60
2022-08-28T04:14:43.784Z,8.20
2022-08-28T04:16:06.368Z,8.60
2022-08-28T04:17:14.205Z,7.90
2022-08-28T04:18:21.333Z,9.10
2022-08-28T04:19:28.505Z,8.60
2022-08-28T04:20:36.513Z,12.20
2022-08-28T04:21:44.144Z,10.40
2022-08-28T04:22:53.012Z,9.30
2022-08-28T04:24:05.831Z,7.60
2022-08-28T04:25:18.444Z,8.20
2022-08-28T04:26:27.085Z,7.90
2022-08-28T04:27:36.290Z,7.00
2022-08-28T04:28:43.528Z,7.20
2022-08-28T04:29:51.539Z,7.90
2022-08-28T04:30:58.962Z,7.90
2022-08-28T04:32:06.267Z,9.10
2022-08-28T04:33:13.563Z,8.60
2022-08-28T04:34:20.937Z,8.30
2022-08-28T04:35:28.649Z,9.60
2022-08-28T04:36:36.529Z,11.30
2022-08-28T04:37:45.031Z,9.50
2022-08-28T04:38:52.824Z,14.80
2022-08-28T04:40:01.559Z,11.50
2022-08-28T04:41:10.996Z,8.80
2022-08-28T04:42:19.526Z,11.70
2022-08-28T04:43:27.603Z,8.20
2022-08-28T04:44:35.816Z,9.30
2022-08-28T04:45:46.784Z,8.90
2022-08-28T04:46:55.313Z,10.20
2022-08-28T04:48:11.387Z,10.60
2022-08-28T04:49:21.701Z,8.20
2022-08-28T04:50:33.928Z,9.20
2022-08-28T04:51:47.648Z,10.00
2022-08-28T04:52:55.761Z,9.60
2022-08-28T04:54:04.762Z,7.80
2022-08-28T04:55:12.480Z,9.50
2022-08-28T04:56:19.720Z,9.10
2022-08-28T04:57:27.684Z,9.70
2022-08-28T04:58:36.693Z,8.20
2022-08-28T04:59:46.384Z,9.70
2022-08-28T05:00:53.643Z,8.40
2022-08-28T05:02:01.386Z,9.60
2022-08-28T05:03:08.715Z,11.00
2022-08-28T05:04:16.020Z,13.70
2022-08-28T05:05:23.253Z,8.50
2022-08-28T05:06:33.926Z,11.50
2022-08-28T05:07:41.112Z,10.00
2022-08-28T05:08:52.676Z,10.40
2022-08-28T05:09:59.852Z,10.00
2022-08-28T05:11:13.535Z,11.20
2022-08-28T05:12:37.460Z,15.40
2022-08-28T05:13:44.833Z,10.40
2022-08-28T05:14:53.165Z,11.10
2022-08-28T05:16:02.093Z,11.40
2022-08-28T05:17:10.630Z,9.60
2022-08-28T05:18:19.076Z,11.40
2022-08-28T05:19:27.471Z,10.60
2022-08-28T05:20:41.364Z,10.50
2022-08-28T05:21:49.217Z,9.10
2022-08-28T05:22:57.542Z,10.30
2022-08-28T05:24:06.276Z,9.30
2022-08-28T05:25:16.691Z,13.80
2022-08-28T05:26:27.067Z,11.00
2022-08-28T05:27:37.101Z,9.10
2022-08-28T05:28:44.293Z,13.40
2022-08-28T05:29:52.414Z,9.50
2022-08-28T05:30:59.575Z,14.90
2022-08-28T05:32:07.044Z,12.50
2022-08-28T05:33:15.246Z,9.10
2022-08-28T05:34:22.394Z,9.50
2022-08-28T05:35:29.642Z,7.70
2022-08-28T05:36:38.065Z,10.00
2022-08-28T05:37:45.320Z,9.00
2022-08-28T05:38:54.541Z,12.30
2022-08-28T05:40:01.705Z,8.80
2022-08-28T05:41:09.794Z,9.20
2022-08-28T05:42:17.014Z,8.70
2022-08-28T05:43:24.377Z,8.80
2022-08-28T05:44:34.712Z,10.20
2022-08-28T05:45:42.041Z,10.80
2022-08-28T05:46:52.403Z,11.70
2022-08-28T05:47:59.551Z,10.90
2022-08-28T05:49:09.855Z,8.30
2022-08-28T05:50:18.085Z,9.10
2022-08-28T05:51:30.256Z,9.20
2022-08-28T05:52:37.939Z,7.40
2022-08-28T05:53:45.798Z,10.80
2022-08-28T05:54:53.194Z,9.70
2022-08-28T05:56:00.384Z,10.90
2022-08-28T05:57:07.891Z,8.60
2022-08-28T05:58:35.215Z,11.00
2022-08-28T05:59:42.244Z,9.10
2022-08-28T06:00:49.611Z,12.10
2022-08-28T06:01:59.845Z,10.40
2022-08-28T06:03:11.402Z,10.60
2022-08-28T06:04:20.645Z,9.10
2022-08-28T06:05:27.807Z,12.10
2022-08-28T06:06:39.613Z,9.60
2022-08-28T06:07:47.641Z,9.50
2022-08-28T06:09:01.637Z,9.20
2022-08-28T06:10:10.600Z,8.30
2022-08-28T06:11:23.665Z,10.10
2022-08-28T06:12:32.115Z,11.60
2022-08-28T06:13:42.170Z,8.50
2022-08-28T06:14:50.994Z,8.80
2022-08-28T06:15:58.415Z,11.60
2022-08-28T06:17:06.429Z,10.40
2022-08-28T06:18:14.377Z,9.10
2022-08-28T06:19:22.515Z,9.20
2022-08-28T06:20:31.315Z,9.70
2022-08-28T06:21:42.436Z,9.00
2022-08-28T06:22:52.743Z,13.70
2022-08-28T06:24:00.053Z,7.80
2022-08-28T06:25:08.895Z,11.10
2022-08-28T06:26:16.175Z,9.80
2022-08-28T06:27:25.894Z,8.10
2022-08-28T06:28:32.674Z,10.60
2022-08-28T06:29:41.129Z,13.40
2022-08-28T06:31:02.934Z,11.60
2022-08-28T06:32:18.228Z,10.20
2022-08-28T06:33:26.206Z,9.80
2022-08-28T06:34:36.115Z,9.20
2022-08-28T06:35:45.097Z,11.00
2022-08-28T06:36:54.237Z,11.60
2022-08-28T06:38:02.882Z,9.50
2022-08-28T06:39:13.093Z,9.90
2022-08-28T06:40:20.991Z,9.30
2022-08-28T06:41:31.253Z,9.40
2022-08-28T06:42:38.721Z,10.80
2022-08-28T06:43:48.973Z,9.90
2022-08-28T06:44:57.301Z,10.50
2022-08-28T06:46:06.143Z,12.90
2022-08-28T06:47:16.535Z,13.60
2022-08-28T06:48:26.910Z,11.60
2022-08-28T06:49:37.572Z,10.40
2022-08-28T06:50:46.505Z,10.00
2022-08-28T06:51:54.073Z,10.00
2022-08-28T06:53:03.102Z,10.50
2022-08-28T06:54:11.614Z,11.50
2022-08-28T06:55:20.115Z,9.70
2022-08-28T06:56:29.546Z,8.10
2022-08-28T06:57:37.672Z,10.90
2022-08-28T06:58:50.315Z,12.30
2022-08-28T07:00:00.159Z,9.20
2022-08-28T07:01:14.281Z,10.40
2022-08-28T07:02:23.411Z,11.60
2022-08-28T07:03:37.092Z,10.30
2022-08-28T07:04:54.149Z,10.60
2022-08-28T07:06:01.370Z,8.90
2022-08-28T07:07:10.357Z,8.40
2022-08-28T07:08:28.276Z,12.60
2022-08-28T07:09:36.549Z,10.30
2022-08-28T07:10:44.563Z,9.30
2022-08-28T07:11:52.291Z,10.80
2022-08-28T07:13:01.791Z,10.00
2022-08-28T07:14:09.080Z,12.80
2022-08-28T07:15:17.279Z,9.50
2022-08-28T07:16:27.089Z,10.20
2022-08-28T07:17:35.080Z,10.00
2022-08-28T07:18:42.254Z,11.40
2022-08-28T07:19:49.209Z,10.60
2022-08-28T07:21:00.723Z,9.40
2022-08-28T07:22:10.226Z,13.70
2022-08-28T07:23:18.638Z,10.80
2022-08-28T07:24:27.488Z,11.00
2022-08-28T07:25:35.256Z,10.00
2022-08-28T07:26:43.106Z,13.60
2022-08-28T07:27:50.087Z,11.70
2022-08-28T07:29:09.596Z,11.20
2022-08-28T07:30:19.274Z,9.40
2022-08-28T07:31:29.609Z,8.70
2022-08-28T07:32:38.225Z,10.50
2022-08-28T07:33:46.194Z,9.50
2022-08-28T07:34:53.856Z,10.30
2022-08-28T07:36:02.305Z,11.80
2022-08-28T07:37:15.118Z,10.30
2022-08-28T07:38:24.679Z,10.90
2022-08-28T07:39:32.274Z,8.10
2022-08-28T07:40:39.378Z,11.80
2022-08-28T07:41:46.525Z,13.50
2022-08-28T07:43:11.912Z,11.60
2022-08-28T07:44:37.782Z,12.40
2022-08-28T07:45:44.868Z,7.90
2022-08-28T07:47:01.098Z,9.60
2022-08-28T07:48:11.603Z,9.90
2022-08-28T07:49:20.287Z,12.90
2022-08-28T07:50:28.561Z,9.30
2022-08-28T07:51:35.392Z,11.20
2022-08-28T07:52:42.440Z,11.00
2022-08-28T07:53:49.848Z,12.10
2022-08-28T07:54:57.561Z,11.10
2022-08-28T07:56:04.910Z,12.50
2022-08-28T07:57:12.021Z,11.90
2022-08-28T07:58:20.137Z,11.80
2022-08-28T07:59:29.571Z,10.60
2022-08-28T08:00:44.150Z,12.00
2022-08-28T08:01:51.997Z,11.30
2022-08-28T08:02:59.707Z,12.30
2022-08-28T08:04:11.349Z,10.60
2022-08-28T08:05:18.688Z,10.50
2022-08-28T08:06:28.860Z,10.40
2022-08-28T08:07:41.997Z,11.70
2022-08-28T08:08:51.480Z,10.30
2022-08-28T08:09:58.601Z,12.00
2022-08-28T08:11:13.879Z,11.90
2022-08-28T08:12:24.208Z,11.10
2022-08-28T08:13:33.112Z,12.00
2022-08-28T08:14:40.792Z,10.80
2022-08-28T08:15:47.619Z,13.00
2022-08-28T08:16:54.985Z,10.80
2022-08-28T08:18:02.663Z,9.20
2022-08-28T08:19:16.781Z,11.80
2022-08-28T08:20:23.904Z,13.50
2022-08-28T08:21:31.388Z,9.20
2022-08-28T08:22:38.862Z,13.00
2022-08-28T08:23:47.110Z,10.50
2022-08-28T08:24:55.764Z,11.90
2022-08-28T08:26:04.781Z,11.50
2022-08-28T08:27:12.998Z,9.60
2022-08-28T08:28:22.671Z,11.90
2022-08-28T08:29:32.888Z,11.00
2022-08-28T08:30:40.838Z,9.80
2022-08-28T08:31:48.749Z,10.60
2022-08-28T08:32:56.670Z,10.40
2022-08-28T08:34:06.971Z,12.60
2022-08-28T08:35:15.430Z,12.50
2022-08-28T08:36:24.868Z,10.40
2022-08-28T08:37:32.780Z,13.70
2022-08-28T08:38:40.481Z,13.40
2022-08-28T08:39:47.959Z,14.30
2022-08-28T08:40:56.279Z,10.70
2022-08-28T08:42:06.029Z,10.90
2022-08-28T08:43:14.800Z,12.80
2022-08-28T08:44:44.780Z,11.90
2022-08-28T08:45:53.677Z,13.10
2022-08-28T08:47:25.143Z,9.50
2022-08-28T08:48:36.489Z,11.60
2022-08-28T08:50:09.457Z,11.00
2022-08-28T08:51:28.847Z,10.60
2022-08-28T08:52:42.557Z,12.50
2022-08-28T08:54:03.287Z,10.80
2022-08-28T08:55:27.416Z,10.20
2022-08-28T08:56:35.220Z,9.80
2022-08-28T08:57:43.113Z,10.90
2022-08-28T08:58:55.026Z,13.00
2022-08-28T09:00:02.229Z,11.70
2022-08-28T09:01:28.182Z,12.40
2022-08-28T09:02:40.952Z,10.20
2022-08-28T09:03:53.790Z,11.30
2022-08-28T09:05:07.068Z,8.40
2022-08-28T09:06:42.316Z,11.60
2022-08-28T09:08:03.700Z,9.50
2022-08-28T09:09:21.894Z,8.20
2022-08-28T09:10:46.928Z,11.10
2022-08-28T09:11:57.564Z,9.90
2022-08-28T09:13:33.125Z,9.80
2022-08-28T09:15:06.920Z,10.40
2022-08-28T09:16:26.120Z,11.30
2022-08-28T09:18:18.854Z,12.40
2022-08-28T09:19:26.024Z,10.50
2022-08-28T09:20:33.577Z,10.60
2022-08-28T09:21:44.876Z,12.50
2022-08-28T09:22:52.094Z,10.90
2022-08-28T09:24:05.814Z,9.60
2022-08-28T09:25:51.370Z,10.20
2022-08-28T09:27:01.422Z,9.70
2022-08-28T09:28:09.570Z,14.20
2022-08-28T09:29:20.956Z,11.50
2022-08-28T09:30:33.246Z,13.60
2022-08-28T09:31:43.285Z,11.90
2022-08-28T09:33:02.163Z,12.00
2022-08-28T09:34:24.034Z,11.90
2022-08-28T09:35:33.058Z,12.50
2022-08-28T09:36:40.857Z,10.10
2022-08-28T09:37:47.927Z,10.90
2022-08-28T09:39:12.010Z,12.00
2022-08-28T09:40:55.127Z,11.50
2022-08-28T09:42:43.263Z,11.40
2022-08-28T09:43:50.736Z,12.20
2022-08-28T09:45:09.572Z,11.50
2022-08-28T09:46:33.334Z,12.40
2022-08-28T09:47:50.843Z,10.40
2022-08-28T09:49:14.171Z,9.30
2022-08-28T09:50:31.881Z,11.90
2022-08-28T09:51:40.178Z,14.60
2022-08-28T09:52:47.677Z,10.10
2022-08-28T09:53:58.099Z,9.60
2022-08-28T09:55:06.511Z,13.80
2022-08-28T09:56:25.024Z,9.80
2022-08-28T09:57:32.027Z,12.00
2022-08-28T09:58:53.017Z,9.60
2022-08-28T10:00:00.068Z,9.90
2022-08-28T10:01:39.166Z,11.80
2022-08-28T10:02:59.516Z,11.40
2022-08-28T10:04:19.417Z,9.50
2022-08-28T10:05:40.228Z,11.80
2022-08-28T10:06:54.118Z,11.00
2022-08-28T10:08:06.457Z,10.90
2022-08-28T10:09:28.526Z,10.40
2022-08-28T10:10:38.397Z,12.10
2022-08-28T10:12:13.410Z,10.90
2022-08-28T10:13:38.090Z,11.60
2022-08-28T10:15:12.137Z,11.60
2022-08-28T10:16:26.127Z,11.30
2022-08-28T10:17:36.470Z,10.60
2022-08-28T10:18:59.087Z,8.80
2022-08-28T10:20:50.566Z,12.90
2022-08-28T10:22:05.058Z,13.60
2022-08-28T10:23:50.089Z,13.10
2022-08-28T10:25:12.758Z,12.40
2022-08-28T10:26:25.677Z,10.60
2022-08-28T10:27:41.039Z,13.10
2022-08-28T10:29:09.489Z,9.70
2022-08-28T10:30:22.897Z,13.60
2022-08-28T10:31:40.440Z,12.30
2022-08-28T10:33:27.289Z,10.60
2022-08-28T10:34:59.369Z,9.10
2022-08-28T10:36:34.212Z,12.60
2022-08-28T10:37:49.498Z,13.50
2022-08-28T10:39:10.406Z,9.70
2022-08-28T10:40:20.588Z,13.40
2022-08-28T10:41:33.786Z,15.30
2022-08-28T10:42:44.642Z,12.90
2022-08-28T10:43:53.377Z,12.20
2022-08-28T10:45:11.315Z,10.60
2022-08-28T10:46:46.267Z,15.70
2022-08-28T10:48:01.143Z,14.40
2022-08-28T10:49:22.032Z,10.40
2022-08-28T10:50:43.940Z,13.40
2022-08-28T10:51:52.234Z,13.60
2022-08-28T10:53:44.451Z,12.20
2022-08-28T10:55:08.122Z,17.90
2022-08-28T10:56:25.280Z,12.60
2022-08-28T10:57:46.364Z,14.10
2022-08-28T10:58:56.805Z,11.30
2022-08-28T11:00:15.241Z,13.40
2022-08-28T11:01:42.583Z,12.20
2022-08-28T11:02:54.462Z,16.00
2022-08-28T11:04:04.662Z,12.90
2022-08-28T11:05:13.767Z,12.60
2022-08-28T11:06:35.135Z,13.20
2022-08-28T11:07:46.283Z,15.20
2022-08-28T11:08:58.174Z,10.00
2022-08-28T11:10:26.234Z,12.30
2022-08-28T11:11:48.002Z,14.70
2022-08-28T11:12:56.240Z,12.40
2022-08-28T11:14:04.355Z,13.60
2022-08-28T11:15:42.094Z,12.30
2022-08-28T11:16:51.394Z,11.50
2022-08-28T11:18:20.468Z,12.60
2022-08-28T11:19:51.649Z,14.30
2022-08-28T11:21:12.344Z,13.40
2022-08-28T11:22:24.786Z,13.50
2022-08-28T11:24:14.964Z,14.90
2022-08-28T11:25:32.587Z,15.10
2022-08-28T11:26:48.913Z,14.00
2022-08-28T11:28:18.944Z,12.80
2022-08-28T11:30:00.104Z,14.00
2022-08-28T11:31:08.141Z,17.80
2022-08-28T11:32:39.025Z,17.10
2022-08-28T11:33:54.331Z,19.30
2022-08-28T11:35:20.573Z,16.70
2022-08-28T11:36:29.583Z,17.10
2022-08-28T11:37:50.134Z,15.90
2022-08-28T11:38:56.983Z,14.30
2022-08-28T11:40:19.674Z,18.70
2022-08-28T11:41:29.513Z,18.80
2022-08-28T11:42:39.753Z,16.50
2022-08-28T11:43:46.983Z,15.50
2022-08-28T11:44:54.063Z,15.90
2022-08-28T11:46:01.641Z,16.50
2022-08-28T11:47:45.853Z,15.20
2022-08-28T11:48:58.386Z,18.00
2022-08-28T11:50:14.263Z,17.90
2022-08-28T11:51:39.986Z,16.40
2022-08-28T11:52:50.223Z,16.50
2022-08-28T11:54:12.643Z,20.20
2022-08-28T11:55:26.191Z,17.90
2022-08-28T11:56:52.663Z,16.70
2022-08-28T11:59:34.967Z,15.10
2022-08-28T12:00:53.321Z,19.30
2022-08-28T12:02:26.085Z,18.60
2022-08-28T12:03:51.532Z,17.50
2022-08-28T12:04:58.991Z,14.90
2022-08-28T12:06:06.116Z,18.30
2022-08-28T12:07:17.903Z,14.60
2022-08-28T12:08:50.157Z,16.50
2022-08-28T12:10:00.676Z,17.20
2022-08-28T12:11:10.946Z,16.00
2022-08-28T12:12:44.680Z,13.50
2022-08-28T12:13:53.532Z,16.90
2022-08-28T12:15:09.381Z,16.00
2022-08-28T12:16:17.806Z,18.20
2022-08-28T12:17:30.542Z,17.40
2022-08-28T12:18:44.319Z,17.30
2022-08-28T12:20:12.682Z,17.30
2022-08-28T12:21:25.291Z,17.90
2022-08-28T12:22:55.292Z,16.00
2022-08-28T12:24:09.906Z,20.80
2022-08-28T12:25:38.719Z,19.10
2022-08-28T12:26:47.574Z,15.20
2022-08-28T12:27:54.608Z,14.10
2022-08-28T12:29:07.008Z,15.60
2022-08-28T12:30:16.401Z,14.60
2022-08-28T12:31:51.897Z,17.10
2022-08-28T12:33:15.358Z,20.80
2022-08-28T12:34:35.359Z,14.70
2022-08-28T12:35:43.899Z,14.10
2022-08-28T12:36:59.350Z,15.10
2022-08-28T12:38:11.045Z,14.50
2022-08-28T12:39:20.327Z,14.30
2022-08-28T12:40:54.797Z,15.40
2022-08-28T12:42:04.378Z,14.10
2022-08-28T12:43:15.512Z,15.20
2022-08-28T12:44:28.668Z,19.20
2022-08-28T12:45:40.687Z,13.40
2022-08-28T12:46:50.660Z,16.20
2022-08-28T12:48:03.310Z,15.00
2022-08-28T12:49:32.299Z,16.50
2022-08-28T12:50:40.199Z,14.70
2022-08-28T12:51:47.047Z,16.90
2022-08-28T12:52:57.147Z,22.40
2022-08-28T12:54:09.784Z,14.00
2022-08-28T12:55:20.315Z,14.80
2022-08-28T12:56:37.936Z,15.00
2022-08-28T12:57:49.395Z,17.00
2022-08-28T12:58:57.458Z,17.40
2022-08-28T13:00:20.348Z,13.70
2022-08-28T13:01:34.197Z,13.90
2022-08-28T13:02:43.933Z,14.10
2022-08-28T13:04:01.137Z,17.80
2022-08-28T13:05:13.405Z,15.40
2022-08-28T13:06:35.369Z,19.30
2022-08-28T13:07:48.877Z,15.60
2022-08-28T13:09:08.977Z,14.20
2022-08-28T13:10:47.186Z,15.20
2022-08-28T13:11:54.613Z,14.80
2022-08-28T13:13:15.321Z,15.80
2022-08-28T13:14:59.369Z,14.20
2022-08-28T13:16:11.732Z,13.80
2022-08-28T13:17:43.386Z,14.70
2022-08-28T13:18:56.499Z,15.90
2022-08-28T13:20:09.383Z,15.80
2022-08-28T13:21:30.819Z,15.00
2022-08-28T13:22:50.657Z,15.60
2022-08-28T13:24:01.786Z,12.90
2022-08-28T13:25:11.552Z,15.40
2022-08-28T13:26:28.338Z,15.90
2022-08-28T13:27:35.973Z,12.40
2022-08-28T13:28:47.543Z,15.40
2022-08-28T13:30:36.353Z,13.60
2022-08-28T13:31:45.264Z,14.70
2022-08-28T13:33:03.826Z,15.20
2022-08-28T13:34:24.199Z,16.90
2022-08-28T13:35:35.122Z,11.90
2022-08-28T13:36:50.560Z,13.20
2022-08-28T13:38:10.418Z,15.10
2022-08-28T13:39:19.549Z,18.80
2022-08-28T13:40:59.140Z,16.30
2022-08-28T13:42:16.180Z,15.30
2022-08-28T13:43:26.067Z,13.80
2022-08-28T13:44:39.247Z,12.90
2022-08-28T13:45:49.707Z,13.20
2022-08-28T13:46:58.455Z,12.50
2022-08-28T13:48:07.557Z,14.30
2022-08-28T13:49:16.579Z,16.30
2022-08-28T13:50:25.646Z,13.50
2022-08-28T13:51:34.413Z,14.40
2022-08-28T13:52:47.519Z,16.60
2022-08-28T13:53:55.208Z,14.20
2022-08-28T13:55:04.971Z,14.70
2022-08-28T13:56:15.374Z,14.20
2022-08-28T13:57:25.908Z,15.30
2022-08-28T13:58:34.576Z,14.00
2022-08-28T13:59:42.597Z,12.20
2022-08-28T14:00:50.947Z,13.60
2022-08-28T14:02:19.107Z,15.10
2022-08-28T14:03:40.627Z,15.00
2022-08-28T14:04:48.198Z,15.20
2022-08-28T14:05:56.154Z,13.80
2022-08-28T14:07:03.626Z,16.70
2022-08-28T14:08:12.207Z,17.30
2022-08-28T14:09:20.695Z,17.50
2022-08-28T14:10:30.734Z,13.50
2022-08-28T14:11:38.464Z,12.60
2022-08-28T14:12:48.897Z,13.60
2022-08-28T14:13:56.612Z,12.70
2022-08-28T14:15:04.623Z,15.00
2022-08-28T14:16:14.821Z,13.80
2022-08-28T14:17:23.151Z,14.40
2022-08-28T14:18:33.313Z,16.40
2022-08-28T14:19:41.240Z,15.90
2022-08-28T14:20:49.301Z,19.30
2022-08-28T14:21:57.073Z,20.60
2022-08-28T14:23:05.986Z,18.70
2022-08-28T14:24:15.164Z,21.30
2022-08-28T14:25:24.132Z,19.90
2022-08-28T14:26:32.368Z,18.90
2022-08-28T14:27:40.063Z,15.60
2022-08-28T14:28:47.367Z,17.90
2022-08-28T14:29:54.739Z,18.20
2022-08-28T14:31:03.090Z,15.80
2022-08-28T14:32:11.984Z,15.70
2022-08-28T14:33:21.342Z,18.10
2022-08-28T14:34:30.382Z,14.00
2022-08-28T14:35:41.745Z,15.80
2022-08-28T14:36:52.382Z,17.00
2022-08-28T14:38:00.374Z,18.30
2022-08-28T14:39:09.215Z,16.60
2022-08-28T14:40:17.989Z,19.40
2022-08-28T14:41:27.454Z,15.60
2022-08-28T14:42:36.163Z,14.50
2022-08-28T14:43:45.746Z,14.40
2022-08-28T14:44:54.821Z,15.80
2022-08-28T14:46:03.326Z,17.80
2022-08-28T14:47:11.454Z,19.10
2022-08-28T14:48:20.574Z,18.80
2022-08-28T14:49:29.924Z,19.30
2022-08-28T14:50:44.285Z,16.80
2022-08-28T14:51:51.847Z,17.80
2022-08-28T14:52:59.623Z,16.60
2022-08-28T14:54:08.094Z,17.70
2022-08-28T14:55:18.648Z,14.60
2022-08-28T14:56:28.184Z,21.50
2022-08-28T14:57:40.163Z,15.60
2022-08-28T14:58:49.387Z,18.40
2022-08-28T14:59:56.220Z,19.30
2022-08-28T15:01:04.377Z,15.60
2022-08-28T15:02:15.282Z,18.40
2022-08-28T15:03:23.614Z,19.60
2022-08-28T15:04:37.408Z,18.80
2022-08-28T15:05:44.721Z,18.30
2022-08-28T15:06:53.199Z,18.20
2022-08-28T15:08:01.677Z,19.60
2022-08-28T15:09:11.518Z,18.60
2022-08-28T15:10:22.422Z,18.90
2022-08-28T15:11:30.966Z,21.50
2022-08-28T15:12:39.144Z,17.20
2022-08-28T15:13:51.364Z,15.90
2022-08-28T15:14:59.235Z,20.50
2022-08-28T15:16:15.829Z,17.80
2022-08-28T15:17:34.238Z,16.70
2022-08-28T15:18:45.826Z,17.40
2022-08-28T15:19:53.102Z,18.10
2022-08-28T15:21:00.903Z,18.70
2022-08-28T15:22:08.982Z,17.40
2022-08-28T15:23:18.751Z,18.00
2022-08-28T15:24:32.728Z,15.50
2022-08-28T15:25:40.545Z,14.00
2022-08-28T15:26:48.226Z,14.50
2022-08-28T15:27:55.301Z,16.70
2022-08-28T15:29:08.581Z,14.40
2022-08-28T15:30:16.976Z,14.80
2022-08-28T15:31:26.560Z,14.90
2022-08-28T15:32:35.005Z,14.40
2022-08-28T15:33:45.345Z,14.20
2022-08-28T15:34:53.154Z,17.20
2022-08-28T15:36:01.061Z,16.40
2022-08-28T15:37:09.444Z,15.30
2022-08-28T15:38:22.191Z,18.70
2022-08-28T15:39:48.469Z,15.40
2022-08-28T15:41:13.994Z,16.70
2022-08-28T15:42:23.095Z,14.80